Time;durP1;ratioP1;P1;durP2;ratioP2;P2;SDS_P1;SDS_P2;PMS_P1;PMS_P2;Temp;Humidity;BMP_temperature;BMP_pressure;BME280_temperature;BME280_humidity;BME280_pressure;Samples;Min_cycle;Max_cycle;Signal;HPM_P1;HPM_P2
2022/05/31 00:01:46;;;;;;;;;;;;;;;9.55;91.85;101460.53;4995160;28;19921;-30
2022/05/31 00:04:15;;;;;;;;;;;;;;;9.53;92.28;101460.81;4994793;28;20370;-31
2022/05/31 00:06:44;;;;;;;;;;;;;;;9.52;92.43;101461.91;4994706;28;19964;-30
2022/05/31 00:09:13;;;;;;;;;;;;;;;9.51;92.58;101464.97;4994791;28;19925;-29
2022/05/31 00:11:41;;;;;;;;;;;;;;;9.50;92.71;101458.56;4994334;28;20252;-30
2022/05/31 00:14:10;;;;;;;;;;;;;;;9.48;92.68;101455.22;4994686;28;19952;-29
2022/05/31 00:16:37;;;;;;;;;;;;;;;9.50;92.90;101466.09;4994609;28;19928;-30
2022/05/31 00:19:05;;;;;;;;;;;;;;;9.46;92.95;101451.03;4994160;28;19925;-34
2022/05/31 00:21:38;;;;;;;;;;;;;;;9.45;92.94;101460.50;4994621;28;19921;-31
2022/05/31 00:24:06;;;;;;;;;;;;;;;9.44;93.36;101456.88;4994615;28;19922;-29
2022/05/31 00:26:37;;;;;;;;;;;;;;;9.43;93.28;101460.78;4994288;28;19922;-28
2022/05/31 00:29:04;;;;;;;;;;;;;;;9.42;93.55;101455.47;4994501;28;19922;-29
2022/05/31 00:31:32;;;;;;;;;;;;;;;9.41;93.58;101459.38;4994214;28;19928;-29
2022/05/31 00:34:00;;;;;;;;;;;;;;;9.41;93.84;101462.16;4992347;28;19922;-29
2022/05/31 00:36:27;;;;;;;;;;;;;;;9.39;94.17;101458.84;4994571;28;20402;-28
2022/05/31 00:38:55;;;;;;;;;;;;;;;9.35;94.20;101455.78;4994122;28;20279;-28
2022/05/31 00:41:25;;;;;;;;;;;;;;;9.35;94.56;101457.72;4993960;28;19929;-28
2022/05/31 00:43:59;;;;;;;;;;;;;;;9.32;94.62;101457.16;4994296;28;20004;-28
2022/05/31 00:46:29;;;;;;;;;;;;;;;9.32;95.34;101459.09;4994058;28;20387;-28
2022/05/31 00:48:59;;;;;;;;;;;;;;;9.32;95.63;101448.81;4994438;28;19926;-28
2022/05/31 00:51:30;;;;;;;;;;;;;;;9.32;95.87;101448.81;4994440;28;20024;-29
2022/05/31 00:54:01;;;;;;;;;;;;;;;9.33;95.96;101450.47;4992124;28;19925;-28
2022/05/31 00:56:30;;;;;;;;;;;;;;;9.35;96.30;101450.22;4992743;28;19957;-29
2022/05/31 00:59:07;;;;;;;;;;;;;;;9.37;96.41;101450.78;4992395;28;19926;-29
2022/05/31 01:01:37;;;;;;;;;;;;;;;9.40;96.63;101449.34;4993483;28;20344;-29
2022/05/31 01:04:05;;;;;;;;;;;;;;;9.42;96.76;101447.13;4993053;28;19921;-29
2022/05/31 01:06:33;;;;;;;;;;;;;;;9.45;96.88;101454.94;4993701;28;20271;-28
2022/05/31 01:09:01;;;;;;;;;;;;;;;9.47;97.08;101445.19;4993363;28;19921;-30
2022/05/31 01:11:34;;;;;;;;;;;;;;;9.52;97.40;101449.94;4993850;28;19926;-28
2022/05/31 01:14:24;;;;;;;;;;;;;;;9.54;98.45;101439.34;4972330;28;19929;-29
2022/05/31 01:17:14;;;;;;;;;;;;;;;9.57;99.17;101449.94;4993880;28;20445;-29
2022/05/31 01:20:04;;;;;;;;;;;;;;;9.60;99.37;101446.56;4993781;28;20068;-29
2022/05/31 01:22:53;;;;;;;;;;;;;;;9.62;99.54;101438.78;4991840;28;19925;-29
2022/05/31 01:25:38;;;;;;;;;;;;;;;9.65;99.96;101449.38;4993619;28;20007;-30
2022/05/31 01:28:12;;;;;;;;;;;;;;;9.68;100.00;101444.09;4993230;28;20395;-28
2022/05/31 01:30:42;;;;;;;;;;;;;;;9.69;100.00;101444.91;4993423;28;20386;-28
2022/05/31 01:33:17;;;;;;;;;;;;;;;9.71;100.00;101445.47;4993791;28;19929;-29
2022/05/31 01:35:46;;;;;;;;;;;;;;;9.72;100.00;101444.38;4991484;28;20016;-29
2022/05/31 01:38:16;;;;;;;;;;;;;;;9.73;100.00;101443.25;4993295;28;19929;-30
2022/05/31 01:40:47;;;;;;;;;;;;;;;9.74;100.00;101442.13;4991323;28;19928;-29
2022/05/31 01:43:15;;;;;;;;;;;;;;;9.74;100.00;101447.72;4992929;28;19925;-30
2022/05/31 01:45:46;;;;;;;;;;;;;;;9.73;100.00;101446.03;4993208;28;19928;-29
2022/05/31 01:48:14;;;;;;;;;;;;;;;9.73;100.00;101451.63;4993015;28;19972;-28
2022/05/31 01:50:42;;;;;;;;;;;;;;;9.70;100.00;101446.59;4991245;28;19922;-29
2022/05/31 01:53:11;;;;;;;;;;;;;;;9.70;100.00;101445.75;4991602;28;20471;-28
2022/05/31 01:55:41;;;;;;;;;;;;;;;9.69;100.00;101444.91;4991126;28;20442;-29
2022/05/31 01:58:13;;;;;;;;;;;;;;;9.67;100.00;101439.63;4991219;28;19943;-28
2022/05/31 02:00:41;;;;;;;;;;;;;;;9.67;100.00;101438.78;4991408;28;19926;-28
2022/05/31 02:03:09;;;;;;;;;;;;;;;9.65;100.00;101435.44;4991344;28;19922;-29
2022/05/31 02:05:36;;;;;;;;;;;;;;;9.64;100.00;101436.56;4990992;28;19922;-28
2022/05/31 02:08:05;;;;;;;;;;;;;;;9.63;100.00;101429.31;4991526;28;19976;-28
2022/05/31 02:10:35;;;;;;;;;;;;;;;9.63;100.00;101437.66;4991200;28;20372;-28
2022/05/31 02:13:07;;;;;;;;;;;;;;;9.62;100.00;101433.19;4990886;28;19922;-29
2022/05/31 02:16:10;;;;;;;;;;;;;;;9.62;100.00;101433.19;4991708;28;19929;-29
2022/05/31 02:21:53;;;;;;;;;;;;;;;9.62;100.00;101433.19;4991279;28;19921;-29
2022/05/31 02:24:21;;;;;;;;;;;;;;;9.62;100.00;101431.25;4992356;28;19922;-29
2022/05/31 02:26:50;;;;;;;;;;;;;;;9.62;100.00;101430.41;4990521;28;19932;-29
2022/05/31 02:29:19;;;;;;;;;;;;;;;9.64;100.00;101430.97;4991323;28;19922;-29
2022/05/31 02:31:47;;;;;;;;;;;;;;;9.65;100.00;101430.69;4992244;28;19933;-29
2022/05/31 02:34:16;;;;;;;;;;;;;;;9.67;100.00;101431.25;4990488;28;19975;-29
2022/05/31 02:36:44;;;;;;;;;;;;;;;9.68;100.00;101437.66;4992399;28;19925;-29
2022/05/31 02:39:11;;;;;;;;;;;;;;;9.69;100.00;101433.78;4990123;28;20372;-29
2022/05/31 02:41:41;;;;;;;;;;;;;;;9.71;100.00;101422.34;4990965;28;19925;-29
2022/05/31 02:44:11;;;;;;;;;;;;;;;9.71;100.00;101430.72;4990544;28;19929;-29
2022/05/31 02:46:41;;;;;;;;;;;;;;;9.71;100.00;101431.53;4991644;28;20263;-28
2022/05/31 02:49:09;;;;;;;;;;;;;;;9.73;100.00;101429.31;4990666;28;20049;-28
2022/05/31 02:51:38;;;;;;;;;;;;;;;9.73;100.00;101418.16;4991797;28;19925;-29
2022/05/31 02:54:06;;;;;;;;;;;;;;;9.75;100.00;101423.47;4991665;28;19925;-28
2022/05/31 02:56:52;;;;;;;;;;;;;;;9.74;100.00;101425.41;4992085;28;19928;-29
2022/05/31 02:59:40;;;;;;;;;;;;;;;9.76;100.00;101423.19;4992147;28;19929;-28
2022/05/31 03:02:40;;;;;;;;;;;;;;;9.77;100.00;101424.88;4991743;28;19925;-30
2022/05/31 03:05:47;;;;;;;;;;;;;;;9.79;100.00;101428.19;4991500;28;19929;-29
2022/05/31 03:08:38;;;;;;;;;;;;;;;9.80;100.00;101423.44;4988111;28;19929;-28
2022/05/31 03:11:15;;;;;;;;;;;;;;;9.82;100.00;101426.78;4990681;28;20418;-30
2022/05/31 03:13:44;;;;;;;;;;;;;;;9.82;100.00;101422.03;4991085;28;19928;-29
2022/05/31 03:16:15;;;;;;;;;;;;;;;9.82;100.00;101426.78;4989499;28;19922;-31
2022/05/31 03:18:44;;;;;;;;;;;;;;;9.82;100.00;101424.00;4988472;28;20004;-29
2022/05/31 03:21:19;;;;;;;;;;;;;;;9.81;100.00;101423.16;4988606;28;19925;-29
2022/05/31 03:23:48;;;;;;;;;;;;;;;9.81;100.00;101412.00;4990740;28;19925;-30
2022/05/31 03:26:18;;;;;;;;;;;;;;;9.82;100.00;101413.69;4990646;28;19925;-29
2022/05/31 03:28:47;;;;;;;;;;;;;;;9.81;100.00;101412.00;4988541;28;19965;-28
2022/05/31 03:31:16;;;;;;;;;;;;;;;9.81;100.00;101406.44;4990026;28;19921;-30
2022/05/31 03:33:44;;;;;;;;;;;;;;;9.81;100.00;101403.66;4991525;28;19976;-29
2022/05/31 03:36:12;;;;;;;;;;;;;;;9.81;100.00;101411.19;4989767;28;20331;-29
2022/05/31 03:38:54;;;;;;;;;;;;;;;9.82;100.00;101407.28;4990493;28;19949;-29
2022/05/31 03:41:22;;;;;;;;;;;;;;;9.81;100.00;101409.22;4989957;28;19926;-29
2022/05/31 03:43:53;;;;;;;;;;;;;;;9.82;100.00;101413.69;4989721;28;19922;-29
2022/05/31 03:46:22;;;;;;;;;;;;;;;9.83;100.00;101411.72;4991879;28;19968;-30
2022/05/31 03:49:11;;;;;;;;;;;;;;;9.82;100.00;101401.69;4987233;28;19922;-29
2022/05/31 03:51:51;;;;;;;;;;;;;;;9.83;100.00;101408.94;4990324;28;19972;-28
2022/05/31 03:54:27;;;;;;;;;;;;;;;9.83;100.00;101401.41;4990176;28;19926;-28
2022/05/31 03:57:13;;;;;;;;;;;;;;;9.83;100.00;101401.41;4991445;28;19922;-29
2022/05/31 03:59:41;;;;;;;;;;;;;;;9.84;100.00;101397.50;4990236;28;19928;-29
2022/05/31 04:02:10;;;;;;;;;;;;;;;9.84;100.00;101405.88;4989615;28;20406;-29
2022/05/31 04:04:39;;;;;;;;;;;;;;;9.84;100.00;101402.25;4990539;28;19921;-31
2022/05/31 04:07:08;;;;;;;;;;;;;;;9.83;100.00;101395.84;4992786;28;19925;-30
2022/05/31 04:09:37;;;;;;;;;;;;;;;9.85;100.00;101401.13;4993481;28;20351;-30
2022/05/31 04:12:08;;;;;;;;;;;;;;;9.87;100.00;101407.28;4993180;28;19922;-29
2022/05/31 04:15:14;;;;;;;;;;;;;;;9.87;100.00;101396.97;4994471;28;19930;-30
2022/05/31 04:17:43;;;;;;;;;;;;;;;9.88;100.00;101406.16;4990197;28;19932;-29
2022/05/31 04:20:11;;;;;;;;;;;;;;;9.89;100.00;101405.88;4990180;28;19926;-29
2022/05/31 04:22:38;;;;;;;;;;;;;;;9.91;100.00;101406.44;4992091;28;19925;-30
2022/05/31 04:25:27;;;;;;;;;;;;;;;9.93;100.00;101398.63;4988795;28;20024;-30
2022/05/31 04:28:24;;;;;;;;;;;;;;;9.96;100.00;101406.44;4991111;28;20023;-29
2022/05/31 04:31:30;;;;;;;;;;;;;;;9.98;100.00;101397.78;4992690;28;19932;-30
2022/05/31 04:34:17;;;;;;;;;;;;;;;10.01;100.00;101406.41;4992289;28;19944;-29
2022/05/31 04:36:45;;;;;;;;;;;;;;;10.05;100.00;101403.06;4992626;28;20038;-30
2022/05/31 04:39:13;;;;;;;;;;;;;;;10.07;100.00;101404.44;4991695;28;19982;-30
2022/05/31 04:41:48;;;;;;;;;;;;;;;10.12;100.00;101406.38;4991008;28;19932;-29
2022/05/31 04:44:21;;;;;;;;;;;;;;;10.15;100.00;101406.66;4993047;28;20000;-29
2022/05/31 04:46:49;;;;;;;;;;;;;;;10.19;100.00;101395.81;4991442;28;20056;-31
2022/05/31 04:49:41;;;;;;;;;;;;;;;10.24;100.00;101402.19;4989138;28;19992;-30
2022/05/31 04:52:10;;;;;;;;;;;;;;;10.30;100.00;101401.06;4990910;28;19921;-31
2022/05/31 04:54:46;;;;;;;;;;;;;;;10.35;100.00;101403.84;4991339;28;19926;-29
2022/05/31 04:57:35;;;;;;;;;;;;;;;10.44;100.00;101397.66;4992366;28;19921;-30
2022/05/31 05:00:04;;;;;;;;;;;;;;;10.51;100.00;101389.81;4991283;28;20055;-30
2022/05/31 05:02:35;;;;;;;;;;;;;;;10.59;100.00;101395.63;4991554;28;20020;-29
2022/05/31 05:05:09;;;;;;;;;;;;;;;10.68;100.00;101396.72;4992716;28;20259;-31
2022/05/31 05:07:44;;;;;;;;;;;;;;;10.74;100.00;101389.16;4990140;28;20294;-31
2022/05/31 05:10:12;;;;;;;;;;;;;;;10.82;100.00;101390.50;4991558;28;19977;-31
2022/05/31 05:12:49;;;;;;;;;;;;;;;10.90;100.00;101389.91;4990532;28;19929;-31
2022/05/31 05:15:38;;;;;;;;;;;;;;;10.95;100.00;101381.50;4991723;28;19928;-30
2022/05/31 05:18:07;;;;;;;;;;;;;;;11.01;100.00;101389.53;4989844;28;19933;-29
2022/05/31 05:20:39;;;;;;;;;;;;;;;11.08;100.00;101389.22;4991128;28;19926;-30
2022/05/31 05:23:06;;;;;;;;;;;;;;;11.14;100.00;101388.06;4991201;28;19932;-29
2022/05/31 05:25:36;;;;;;;;;;;;;;;11.22;100.00;101389.38;4991444;28;19968;-29
2022/05/31 05:30:38;;;;;;;;;;;;;;;11.29;100.00;101393.53;4991448;28;19980;-30
2022/05/31 05:31:22;;;;;;;;;;;;;;;11.40;100.00;101383.94;4984215;28;20609;-33
2022/05/31 05:34:22;;;;;;;;;;;;;;;11.52;100.00;101391.97;4992933;28;19976;-29
2022/05/31 05:36:59;;;;;;;;;;;;;;;11.59;100.00;101378.47;4991557;28;19932;-30
2022/05/31 05:39:27;;;;;;;;;;;;;;;11.70;100.00;101382.00;4991754;28;19965;-32
2022/05/31 05:42:33;;;;;;;;;;;;;;;11.81;100.00;101375.22;4988310;28;20068;-31
2022/05/31 05:45:05;;;;;;;;;;;;;;;11.89;100.00;101382.97;4992923;28;19921;-31
2022/05/31 05:47:32;;;;;;;;;;;;;;;11.94;100.00;101387.69;4990792;28;20012;-33
2022/05/31 05:50:00;;;;;;;;;;;;;;;12.02;100.00;101382.25;4990488;28;19933;-31
2022/05/31 05:53:06;;;;;;;;;;;;;;;12.15;100.00;101375.16;4992468;28;19928;-33
2022/05/31 05:55:57;;;;;;;;;;;;;;;12.28;100.00;101382.81;4991453;28;19932;-33
2022/05/31 05:58:43;;;;;;;;;;;;;;;12.37;100.00;101383.00;4992952;28;19928;-36
2022/05/31 06:01:44;;;;;;;;;;;;;;;12.49;100.00;101391.78;4991815;28;20437;-33
2022/05/31 06:04:53;;;;;;;;;;;;;;;12.60;100.00;101386.88;4990923;28;19928;-33
2022/05/31 06:07:24;;;;;;;;;;;;;;;12.69;100.00;101387.91;4992573;28;20359;-34
2022/05/31 06:09:56;;;;;;;;;;;;;;;12.76;100.00;101380.81;4991380;28;19929;-31
2022/05/31 06:12:26;;;;;;;;;;;;;;;12.87;100.00;101375.88;4991060;28;19922;-30
2022/05/31 06:14:56;;;;;;;;;;;;;;;12.98;100.00;101382.19;4992747;28;19968;-30
2022/05/31 06:17:25;;;;;;;;;;;;;;;13.09;100.00;101378.06;4990385;28;19925;-30
2022/05/31 06:19:52;;;;;;;;;;;;;;;13.21;100.00;101374.84;4991071;28;19922;-29
2022/05/31 06:22:21;;;;;;;;;;;;;;;13.31;99.23;101378.31;4991063;28;19922;-30
2022/05/31 06:25:13;;;;;;;;;;;;;;;13.43;98.44;101377.84;4990752;28;19932;-29
2022/05/31 06:28:07;;;;;;;;;;;;;;;13.58;97.75;101386.00;4990951;28;19929;-30
2022/05/31 06:30:35;;;;;;;;;;;;;;;13.71;96.33;101379.59;4990686;28;19925;-30
2022/05/31 06:33:02;;;;;;;;;;;;;;;13.83;93.91;101376.28;4991888;28;19976;-31
2022/05/31 06:35:31;;;;;;;;;;;;;;;13.95;92.92;101378.63;4990849;28;19921;-30
2022/05/31 06:38:03;;;;;;;;;;;;;;;14.02;90.20;101382.66;4992173;28;19976;-30
2022/05/31 06:40:32;;;;;;;;;;;;;;;14.12;89.91;101379.69;4991759;28;20385;-31
2022/05/31 06:43:29;;;;;;;;;;;;;;;14.33;89.64;101373.66;4991766;28;20032;-32
2022/05/31 06:46:15;;;;;;;;;;;;;;;14.52;89.12;101379.19;4991759;28;19932;-31
2022/05/31 06:49:01;;;;;;;;;;;;;;;14.68;88.04;101378.56;4992400;28;20306;-29
2022/05/31 06:57:47;;;;;;;;;;;;;;;15.12;85.30;101377.84;4991993;28;19922;-30
2022/05/31 07:00:22;;;;;;;;;;;;;;;15.27;81.17;101376.63;4990261;28;19928;-36
2022/05/31 07:02:52;;;;;;;;;;;;;;;15.40;81.03;101378.53;4990592;28;19922;-32
2022/05/31 07:05:19;;;;;;;;;;;;;;;15.55;77.52;101376.50;4990391;28;19926;-30
2022/05/31 07:07:47;;;;;;;;;;;;;;;15.57;76.25;101377.88;4989916;28;19966;-30
2022/05/31 07:10:33;;;;;;;;;;;;;;;15.66;76.33;101369.50;4992193;28;19995;-30
2022/05/31 07:13:34;;;;;;;;;;;;;;;15.82;75.60;101367.94;4991412;28;19931;-31
2022/05/31 07:16:20;;;;;;;;;;;;;;;16.02;74.48;101367.38;4991718;28;19926;-29
2022/05/31 07:19:06;;;;;;;;;;;;;;;16.25;71.66;101373.78;4991691;28;19922;-30
2022/05/31 07:21:41;;;;;;;;;;;;;;;16.39;69.16;101368.84;4989833;28;19925;-30
2022/05/31 07:24:09;;;;;;;;;;;;;;;16.59;71.19;101366.59;4990527;28;19931;-31
2022/05/31 07:26:47;;;;;;;;;;;;;;;16.78;69.28;101365.22;4990208;28;19925;-31
2022/05/31 07:29:19;;;;;;;;;;;;;;;16.97;70.60;101361.25;4990184;28;19921;-30
2022/05/31 07:31:47;;;;;;;;;;;;;;;17.07;68.35;101361.75;4991449;28;19926;-30
2022/05/31 07:34:34;;;;;;;;;;;;;;;17.25;64.08;101361.75;4989902;28;19921;-31
2022/05/31 07:37:03;;;;;;;;;;;;;;;17.27;59.23;101357.44;4991460;28;19928;-30
2022/05/31 07:39:30;;;;;;;;;;;;;;;17.15;57.77;101360.94;4991357;28;19932;-30
2022/05/31 07:41:59;;;;;;;;;;;;;;;17.10;59.78;101360.25;4993731;28;19921;-32
2022/05/31 07:44:28;;;;;;;;;;;;;;;17.19;58.19;101359.09;4994057;28;20326;-30
2022/05/31 07:46:56;;;;;;;;;;;;;;;17.24;58.70;101366.56;4995136;28;20299;-30
2022/05/31 07:49:24;;;;;;;;;;;;;;;17.35;61.57;101348.16;4993453;28;20382;-30
2022/05/31 07:51:58;;;;;;;;;;;;;;;17.66;63.36;101349.94;4994162;28;19921;-30
2022/05/31 07:54:49;;;;;;;;;;;;;;;17.95;61.42;101352.06;4994833;28;19973;-30
2022/05/31 08:00:35;;;;;;;;;;;;;;;18.15;56.42;101345.66;4994963;28;19926;-30
2022/05/31 08:03:05;;;;;;;;;;;;;;;18.37;58.67;101348.22;4993710;28;20020;-28
2022/05/31 08:05:33;;;;;;;;;;;;;;;18.59;53.71;101352.75;4995040;28;19931;-30
2022/05/31 08:08:00;;;;;;;;;;;;;;;18.61;51.74;101356.09;4994778;28;19925;-31
2022/05/31 08:10:48;;;;;;;;;;;;;;;18.66;50.99;101352.25;4994788;28;19949;-29
2022/05/31 08:13:16;;;;;;;;;;;;;;;18.64;49.17;101361.06;4994980;28;20024;-29
2022/05/31 08:15:45;;;;;;;;;;;;;;;18.65;48.47;101344.94;4994806;28;19929;-29
2022/05/31 08:18:12;;;;;;;;;;;;;;;18.85;53.85;101356.25;4994303;28;19921;-30
2022/05/31 08:20:40;;;;;;;;;;;;;;;19.23;52.30;101352.47;4993590;28;20298;-29
2022/05/31 08:23:08;;;;;;;;;;;;;;;19.55;44.60;101340.41;4994440;28;19932;-29
2022/05/31 08:25:38;;;;;;;;;;;;;;;19.82;47.52;101347.44;4994119;28;20356;-29
2022/05/31 08:28:06;;;;;;;;;;;;;;;20.24;43.78;101348.09;4994291;28;20763;-30
2022/05/31 08:30:34;;;;;;;;;;;;;;;20.54;41.51;101345.91;4994716;28;19921;-29
2022/05/31 08:33:03;;;;;;;;;;;;;;;20.81;44.69;101344.31;4993895;28;19943;-30
2022/05/31 08:35:31;;;;;;;;;;;;;;;21.07;40.32;101345.94;4994156;28;19929;-29
2022/05/31 08:38:19;;;;;;;;;;;;;;;21.09;42.03;101344.41;4994212;28;19929;-29
2022/05/31 08:40:50;;;;;;;;;;;;;;;21.35;42.74;101349.69;4994353;28;19972;-32
2022/05/31 08:43:23;;;;;;;;;;;;;;;21.61;40.25;101344.34;4994219;28;19929;-29
2022/05/31 08:45:53;;;;;;;;;;;;;;;21.80;37.47;101337.97;4993721;28;20381;-30
2022/05/31 08:48:29;;;;;;;;;;;;;;;21.89;39.87;101341.47;4994491;28;19925;-29
2022/05/31 08:56:56;;;;;;;;;;;;;;;22.16;40.73;101336.97;4993705;28;19968;-30
2022/05/31 08:59:31;;;;;;;;;;;;;;;22.49;41.82;101333.72;4992234;28;20465;-31
2022/05/31 09:02:00;;;;;;;;;;;;;;;22.65;40.89;101336.53;4993944;28;20283;-31
2022/05/31 09:04:36;;;;;;;;;;;;;;;22.82;37.80;101341.03;4993653;28;20291;-31
2022/05/31 09:07:06;;;;;;;;;;;;;;;22.79;37.53;101331.22;4993371;28;20410;-30
2022/05/31 09:09:38;;;;;;;;;;;;;;;22.77;37.53;101338.47;4994274;28;20018;-30
2022/05/31 09:12:10;;;;;;;;;;;;;;;22.54;36.05;101335.47;4993703;28;19947;-35
2022/05/31 09:14:47;;;;;;;;;;;;;;;22.58;38.32;101325.81;4993341;28;20326;-32
2022/05/31 09:17:18;;;;;;;;;;;;;;;22.83;39.62;101332.13;4993141;28;19932;-30
2022/05/31 09:19:52;;;;;;;;;;;;;;;23.31;39.04;101329.94;4993878;28;20280;-31
2022/05/31 09:22:24;;;;;;;;;;;;;;;23.54;35.16;101327.19;4993667;28;19969;-35
2022/05/31 09:24:52;;;;;;;;;;;;;;;23.42;33.41;101324.44;4993340;28;20020;-36
2022/05/31 09:27:21;;;;;;;;;;;;;;;23.40;38.82;101332.53;4992858;28;20019;-39
2022/05/31 09:30:01;;;;;;;;;;;;;;;23.58;33.98;101323.19;4993627;28;19925;-33
2022/05/31 09:32:44;;;;;;;;;;;;;;;23.33;31.77;101327.53;4993352;28;19933;-37
2022/05/31 09:35:23;;;;;;;;;;;;;;;23.39;38.52;101331.72;4992884;28;19922;-36
2022/05/31 09:38:00;;;;;;;;;;;;;;;23.88;37.38;101331.94;4993122;28;19929;-38
2022/05/31 09:40:40;;;;;;;;;;;;;;;24.16;34.31;101320.22;4993523;28;19931;-32
2022/05/31 09:43:10;;;;;;;;;;;;;;;24.47;35.50;101324.03;4992793;28;19926;-39
2022/05/31 09:45:41;;;;;;;;;;;;;;;24.63;34.96;101321.84;4993178;28;20016;-39
2022/05/31 09:48:09;;;;;;;;;;;;;;;24.67;35.24;101317.00;4992615;28;19922;-37
2022/05/31 09:50:38;;;;;;;;;;;;;;;24.64;36.63;101317.78;4993207;28;19925;-35
2022/05/31 09:57:06;;;;;;;;;;;;;;;24.55;34.54;101320.91;4992847;28;20330;-36
2022/05/31 09:59:02;;;;;;;;;;;;;;;24.22;36.48;101312.97;4992811;28;19933;-30
2022/05/31 10:01:49;;;;;;;;;;;;;;;24.10;35.26;101307.50;4992815;28;20295;-35
2022/05/31 10:04:26;;;;;;;;;;;;;;;23.90;36.06;101303.06;4991012;28;20430;-29
2022/05/31 10:06:59;;;;;;;;;;;;;;;23.76;37.67;101308.50;4992373;28;19927;-37
2022/05/31 10:09:31;;;;;;;;;;;;;;;23.66;37.47;101307.06;4992423;28;19925;-41
2022/05/31 10:12:17;;;;;;;;;;;;;;;23.58;37.73;101316.69;4992611;28;19921;-31
2022/05/31 10:14:45;;;;;;;;;;;;;;;23.69;39.17;101304.28;4992408;28;20262;-31
2022/05/31 10:17:30;;;;;;;;;;;;;;;23.99;37.46;101306.47;4991771;28;19925;-31
2022/05/31 10:20:21;;;;;;;;;;;;;;;24.50;39.20;101306.97;4992480;28;20449;-39
2022/05/31 10:22:52;;;;;;;;;;;;;;;25.13;36.68;101312.00;4982430;28;19922;-37
2022/05/31 10:25:41;;;;;;;;;;;;;;;25.65;36.62;101313.06;4992124;28;20371;-30
2022/05/31 10:28:31;;;;;;;;;;;;;;;26.02;35.39;101307.31;4988070;28;19929;-31
2022/05/31 10:31:03;;;;;;;;;;;;;;;26.35;35.76;101301.53;4990646;28;19928;-30
2022/05/31 10:33:37;;;;;;;;;;;;;;;26.75;34.63;101297.75;4992163;28;20029;-38
2022/05/31 10:36:16;;;;;;;;;;;;;;;27.04;34.18;101301.63;4992109;28;19976;-35
2022/05/31 10:38:46;;;;;;;;;;;;;;;26.94;29.85;101301.53;4991706;28;19926;-38
2022/05/31 10:41:19;;;;;;;;;;;;;;;26.53;32.58;101298.81;4992160;28;20043;-29
2022/05/31 10:44:04;;;;;;;;;;;;;;;26.03;31.18;101304.06;4992225;28;20331;-29
2022/05/31 10:46:33;;;;;;;;;;;;;;;25.57;34.36;101306.44;4991561;28;19929;-30
2022/05/31 10:49:02;;;;;;;;;;;;;;;25.26;33.88;101315.44;4991670;28;20398;-30
2022/05/31 10:51:42;;;;;;;;;;;;;;;25.03;35.38;101318.38;4990310;28;19928;-32
2022/05/31 10:54:20;;;;;;;;;;;;;;;24.72;35.10;101311.81;4992179;28;20346;-35
2022/05/31 10:56:55;;;;;;;;;;;;;;;24.49;36.13;101310.19;4992033;28;19976;-34
2022/05/31 10:59:27;;;;;;;;;;;;;;;24.30;35.70;101314.78;4991426;28;20378;-29
2022/05/31 11:02:07;;;;;;;;;;;;;;;24.14;36.36;101308.38;4991876;28;20370;-30
2022/05/31 11:04:46;;;;;;;;;;;;;;;24.02;36.73;101308.56;4991901;28;19922;-28
2022/05/31 11:07:21;;;;;;;;;;;;;;;23.91;36.62;101304.69;4991325;28;19925;-29
2022/05/31 11:12:52;;;;;;;;;;;;;;;23.55;37.78;101306.88;4991584;28;20099;-36
2022/05/31 11:15:25;;;;;;;;;;;;;;;23.33;37.54;101305.59;4994434;28;19944;-30
2022/05/31 11:18:09;;;;;;;;;;;;;;;23.18;38.94;101306.47;4995350;28;19925;-30
2022/05/31 11:20:43;;;;;;;;;;;;;;;23.00;38.57;101306.06;4995492;28;19926;-38
2022/05/31 11:23:17;;;;;;;;;;;;;;;22.85;39.23;101309.81;4996042;28;20276;-39
2022/05/31 11:25:56;;;;;;;;;;;;;;;22.72;39.05;101311.13;4995775;28;19944;-38
2022/05/31 11:28:51;;;;;;;;;;;;;;;22.48;39.58;101308.50;4995249;28;19922;-31
2022/05/31 11:31:27;;;;;;;;;;;;;;;22.30;40.25;101306.03;4995561;28;20276;-32
2022/05/31 11:34:15;;;;;;;;;;;;;;;22.16;40.76;101314.22;4995068;28;19925;-38
2022/05/31 11:36:49;;;;;;;;;;;;;;;22.00;40.35;101319.03;4995404;28;19925;-34
2022/05/31 11:39:25;;;;;;;;;;;;;;;21.88;40.76;101313.44;4995506;28;19928;-34
2022/05/31 11:41:59;;;;;;;;;;;;;;;21.73;40.14;101317.06;4995407;28;19949;-33
2022/05/31 11:44:45;;;;;;;;;;;;;;;21.51;41.55;101325.00;4995340;28;19928;-29
2022/05/31 11:47:22;;;;;;;;;;;;;;;21.36;41.68;101324.97;4995324;28;19932;-30
2022/05/31 11:49:55;;;;;;;;;;;;;;;21.26;41.59;101329.13;4995009;28;19928;-33
2022/05/31 11:52:41;;;;;;;;;;;;;;;21.17;42.13;101325.59;4995259;28;20287;-38
2022/05/31 11:55:28;;;;;;;;;;;;;;;21.06;42.27;101327.25;4994717;28;19921;-30
2022/05/31 11:58:08;;;;;;;;;;;;;;;20.94;42.23;101330.97;4995295;28;19921;-37
2022/05/31 12:00:39;;;;;;;;;;;;;;;20.82;42.52;101322.47;4994977;28;20371;-35
2022/05/31 12:03:12;;;;;;;;;;;;;;;20.70;42.29;101320.50;4994660;28;19949;-31
2022/05/31 12:05:43;;;;;;;;;;;;;;;20.60;42.99;101327.44;4995142;28;19921;-31
2022/05/31 12:08:13;;;;;;;;;;;;;;;20.51;43.10;101326.78;4995095;28;20044;-31
2022/05/31 12:10:42;;;;;;;;;;;;;;;20.41;43.32;101315.06;4994680;28;20389;-37
2022/05/31 12:13:12;;;;;;;;;;;;;;;20.35;43.73;101319.31;4994787;28;19952;-30
2022/05/31 12:15:42;;;;;;;;;;;;;;;20.27;44.57;101324.72;4994840;28;20008;-36
2022/05/31 12:18:16;;;;;;;;;;;;;;;20.19;44.92;101325.66;4994490;28;19921;-33
2022/05/31 12:20:47;;;;;;;;;;;;;;;20.11;45.18;101320.94;4994727;28;19928;-30
2022/05/31 12:23:18;;;;;;;;;;;;;;;19.99;44.42;101323.75;4994168;28;20363;-29
2022/05/31 12:25:49;;;;;;;;;;;;;;;19.91;45.19;101324.69;4994009;28;20666;-34
2022/05/31 12:28:21;;;;;;;;;;;;;;;19.84;46.09;101335.75;4994521;28;19922;-29
2022/05/31 12:30:54;;;;;;;;;;;;;;;19.77;46.43;101321.38;4992896;28;20380;-31
2022/05/31 12:33:43;;;;;;;;;;;;;;;19.65;44.88;101324.97;4994494;28;19922;-29
2022/05/31 12:36:11;;;;;;;;;;;;;;;19.54;43.95;101327.44;4994552;28;20028;-29
2022/05/31 12:38:55;;;;;;;;;;;;;;;19.44;44.62;101318.50;4993988;28;19922;-30
2022/05/31 12:41:33;;;;;;;;;;;;;;;19.36;44.50;101325.09;4994349;28;19926;-41
2022/05/31 12:44:02;;;;;;;;;;;;;;;19.31;45.84;101325.28;4993842;28;19936;-31
2022/05/31 12:46:35;;;;;;;;;;;;;;;19.26;44.90;101323.50;4994316;28;19928;-32
2022/05/31 12:49:05;;;;;;;;;;;;;;;19.21;45.36;101321.69;4994234;28;20024;-30
2022/05/31 12:51:33;;;;;;;;;;;;;;;19.14;45.46;101318.63;4993698;28;19925;-36
2022/05/31 12:54:08;;;;;;;;;;;;;;;19.08;46.10;101322.00;4994005;28;19921;-29
2022/05/31 12:56:37;;;;;;;;;;;;;;;19.03;46.19;101310.88;4993852;28;20324;-30
2022/05/31 12:59:07;;;;;;;;;;;;;;;18.99;47.20;101313.56;4993510;28;19928;-35
2022/05/31 13:01:57;;;;;;;;;;;;;;;18.98;48.33;101311.94;4993749;28;19932;-30
2022/05/31 13:04:28;;;;;;;;;;;;;;;18.98;48.04;101306.28;4993887;28;19976;-35
2022/05/31 13:07:04;;;;;;;;;;;;;;;19.00;47.78;101311.56;4993376;28;19921;-29
2022/05/31 13:09:33;;;;;;;;;;;;;;;19.03;47.96;101308.06;4993649;28;20415;-29
2022/05/31 13:20:27;;;;;;;;;;;;;;;19.26;47.22;101304.50;4993080;28;19922;-34
2022/05/31 13:22:56;;;;;;;;;;;;;;;19.35;46.54;101295.97;4993312;28;19922;-34
2022/05/31 13:25:26;;;;;;;;;;;;;;;19.41;45.08;101293.72;4993610;28;19922;-38
2022/05/31 13:27:55;;;;;;;;;;;;;;;19.49;45.65;101292.81;4992909;28;20008;-30
2022/05/31 13:30:25;;;;;;;;;;;;;;;19.59;44.92;101298.88;4993316;28;19925;-35
2022/05/31 13:32:53;;;;;;;;;;;;;;;19.64;44.07;101289.34;4993502;28;19925;-31
2022/05/31 13:35:24;;;;;;;;;;;;;;;19.74;45.60;101290.91;4992728;28;20032;-29
2022/05/31 13:37:59;;;;;;;;;;;;;;;19.93;44.81;101282.69;4992333;28;19925;-30
2022/05/31 13:40:32;;;;;;;;;;;;;;;20.20;45.12;101292.47;4992756;28;19922;-30
2022/05/31 13:43:00;;;;;;;;;;;;;;;20.49;44.89;101289.44;4993367;28;19922;-34
2022/05/31 13:45:31;;;;;;;;;;;;;;;20.73;43.91;101291.41;4992592;28;20276;-37
2022/05/31 13:47:59;;;;;;;;;;;;;;;20.87;42.69;101291.84;4992416;28;19929;-34